Terminal Aerodrome Forecast
Issued by NWS Twin Cities, MN

Home | Current Version | Previous Version | Graphics & Text | Print | Product List | Glossary On
Versions: 1 2 3 4 5 6 7 8 9 10 11 12 13 14 15
331
FTUS43 KMPX 042334
TAFSTC
TAF
KSTC 042334Z 0500/0524 30006KT P6SM SKC
     FM050600 VRB03KT 6SM BR SKC
     FM051200 16006KT P6SM OVC090
     FM051900 19008KT 3SM -SN BR OVC022=

USA.gov is the U.S. government's official web portal to all federal, state and local government web resources and services.